Time;durP1;ratioP1;P1;durP2;ratioP2;P2;SDS_P1;SDS_P2;PMS_P1;PMS_P2;Temp;Humidity;BMP_temperature;BMP_pressure;BME280_temperature;BME280_humidity;BME280_pressure;Samples;Min_cycle;Max_cycle;Signal;HPM_P1;HPM_P2
2023/01/23 00:01:11;;;;;;;15.50;11.13;;;;;;;4.99;60.05;98594.38;5042341;28;20839;-69
2023/01/23 00:03:36;;;;;;;12.90;10.13;;;;;;;5.02;60.26;98586.44;5037716;28;20172;-70
2023/01/23 00:06:05;;;;;;;17.60;11.83;;;;;;;4.98;60.53;98587.50;5042823;28;20486;-70
2023/01/23 00:08:31;;;;;;;15.20;11.20;;;;;;;4.97;60.04;98588.41;5051390;28;20595;-70
2023/01/23 00:10:57;;;;;;;13.97;10.20;;;;;;;4.94;60.51;98585.16;5055487;28;20421;-70
2023/01/23 00:13:22;;;;;;;15.70;11.63;;;;;;;4.95;60.49;98587.66;5051614;28;20801;-70
2023/01/23 00:15:48;;;;;;;15.13;10.80;;;;;;;5.00;60.61;98585.66;5049034;28;20206;-70
2023/01/23 00:18:14;;;;;;;15.67;12.27;;;;;;;5.02;60.04;98581.22;5051408;28;20217;-70
2023/01/23 00:20:40;;;;;;;14.20;10.53;;;;;;;5.11;59.96;98585.06;5044915;28;20180;-70
2023/01/23 00:23:06;;;;;;;13.53;10.60;;;;;;;5.07;59.61;98589.59;5049942;28;20539;-70
2023/01/23 00:25:33;;;;;;;14.63;11.30;;;;;;;5.04;59.69;98587.16;5053277;28;20417;-69
2023/01/23 00:27:58;;;;;;;13.60;10.60;;;;;;;5.01;59.82;98582.16;5059910;28;20468;-70
2023/01/23 00:30:24;;;;;;;16.30;11.57;;;;;;;5.03;60.09;98593.31;5045390;28;20941;-70
2023/01/23 00:32:49;;;;;;;13.93;10.77;;;;;;;5.08;59.92;98591.28;5036980;28;20249;-70
2023/01/23 00:35:15;;;;;;;13.40;10.77;;;;;;;5.12;59.86;98589.34;5038197;28;20191;-70
2023/01/23 00:37:41;;;;;;;14.40;10.93;;;;;;;5.12;59.52;98593.72;5039673;28;20199;-70
2023/01/23 00:40:07;;;;;;;13.10;9.87;;;;;;;5.06;59.69;98579.28;5041018;28;20697;-69
2023/01/23 00:42:32;;;;;;;13.60;10.23;;;;;;;5.06;59.88;98580.13;5043697;28;20899;-69
2023/01/23 00:44:58;;;;;;;14.23;10.80;;;;;;;5.10;60.00;98582.56;5043023;28;20433;-70
2023/01/23 00:47:23;;;;;;;14.87;11.27;;;;;;;5.03;59.63;98590.69;5047313;28;20703;-70
2023/01/23 00:49:49;;;;;;;15.20;10.70;;;;;;;5.05;59.67;98588.84;5043932;28;20241;-70
2023/01/23 00:52:14;;;;;;;13.67;11.30;;;;;;;5.03;59.33;98585.50;5039803;28;20262;-69
2023/01/23 00:54:40;;;;;;;14.33;10.83;;;;;;;5.02;59.19;98580.38;5046106;28;20273;-69
2023/01/23 00:57:05;;;;;;;15.30;11.20;;;;;;;5.05;59.72;98588.00;5038994;28;20206;-70
2023/01/23 00:59:30;;;;;;;14.67;10.80;;;;;;;5.02;59.14;98583.81;5045439;28;20626;-69
2023/01/23 01:01:56;;;;;;;14.27;10.60;;;;;;;5.05;59.51;98580.22;5039934;28;20180;-69
2023/01/23 01:04:21;;;;;;;13.77;10.30;;;;;;;5.09;59.84;98581.72;5040523;28;20318;-69
2023/01/23 01:06:47;;;;;;;16.23;11.70;;;;;;;5.08;59.67;98587.84;5041622;28;20286;-68
2023/01/23 01:09:13;;;;;;;13.77;10.20;;;;;;;5.00;59.38;98590.00;5038409;28;20248;-70
2023/01/23 01:11:38;;;;;;;14.57;10.50;;;;;;;4.96;59.51;98591.94;5037293;28;20266;-71
2023/01/23 01:14:04;;;;;;;14.13;10.90;;;;;;;4.96;59.49;98601.50;5041072;28;20187;-71
2023/01/23 01:16:29;;;;;;;14.33;10.47;;;;;;;4.97;59.75;98598.81;5045457;28;20286;-70
2023/01/23 01:18:55;;;;;;;14.70;10.30;;;;;;;4.98;59.63;98608.28;5040924;28;20195;-71
2023/01/23 01:21:20;;;;;;;13.40;10.10;;;;;;;5.00;59.39;98611.66;5039369;28;20192;-70
2023/01/23 01:23:45;;;;;;;14.20;11.00;;;;;;;5.01;59.67;98608.13;5041632;28;20236;-70
2023/01/23 01:26:11;;;;;;;15.40;11.17;;;;;;;5.01;59.78;98617.66;5038406;28;20196;-70
2023/01/23 01:28:38;;;;;;;12.67;10.70;;;;;;;4.92;59.94;98613.81;5047426;28;20241;-71
2023/01/23 01:31:12;;;;;;;16.30;11.40;;;;;;;4.96;59.93;98615.31;5038202;28;20199;-71
2023/01/23 01:33:39;;;;;;;13.00;10.30;;;;;;;4.97;59.63;98621.38;5048260;28;20413;-71
2023/01/23 01:36:13;;;;;;;16.70;10.83;;;;;;;4.98;59.66;98621.28;5040318;28;20827;-71
2023/01/23 01:38:39;;;;;;;14.80;10.70;;;;;;;5.00;59.83;98622.03;5041686;28;20416;-70
2023/01/23 01:41:05;;;;;;;13.37;10.13;;;;;;;4.98;59.91;98617.84;5047707;28;20437;-71
2023/01/23 01:43:32;;;;;;;14.53;10.83;;;;;;;4.97;59.27;98621.38;5045107;28;20459;-71
2023/01/23 01:46:09;;;;;;;17.03;12.20;;;;;;;4.88;59.88;98622.69;5035504;28;20446;-70
2023/01/23 01:48:52;;;;;;;14.93;11.17;;;;;;;4.94;59.76;98626.72;5033019;28;20461;-70
2023/01/23 01:51:18;;;;;;;14.33;11.07;;;;;;;4.81;59.98;98631.72;5042731;28;20957;-71
2023/01/23 01:53:47;;;;;;;17.03;11.77;;;;;;;4.87;59.86;98626.22;5033557;28;20422;-71
2023/01/23 01:56:13;;;;;;;14.27;10.60;;;;;;;4.92;60.00;98624.19;5036730;28;20204;-70
2023/01/23 01:58:40;;;;;;;17.33;11.40;;;;;;;4.90;60.00;98633.84;5031582;28;20426;-71
2023/01/23 02:01:05;;;;;;;17.20;10.80;;;;;;;4.90;60.02;98636.47;4983649;28;20789;-70
2023/01/23 02:03:30;;;;;;;16.37;11.63;;;;;;;4.89;60.40;98634.78;5006168;28;20426;-70
2023/01/23 02:05:56;;;;;;;15.57;11.23;;;;;;;4.95;60.28;98631.84;5032956;28;20183;-70
2023/01/23 02:08:43;;;;;;;15.20;11.43;;;;;;;4.89;60.38;98637.38;5034962;28;20287;-70
2023/01/23 02:11:09;;;;;;;17.50;12.03;;;;;;;4.94;59.95;98637.13;5050942;28;20266;-70
2023/01/23 02:13:38;;;;;;;15.10;11.20;;;;;;;4.91;59.57;98638.13;5038095;28;20431;-70
2023/01/23 02:16:08;;;;;;;17.33;11.17;;;;;;;4.90;60.10;98641.66;5033969;28;20279;-70
2023/01/23 02:18:35;;;;;;;14.77;10.73;;;;;;;4.95;59.96;98636.22;5021022;28;20509;-70
2023/01/23 02:21:06;;;;;;;16.90;12.10;;;;;;;4.97;59.61;98634.38;5033153;28;20423;-70
2023/01/23 02:24:10;;;;;;;14.43;11.13;;;;;;;4.95;59.99;98639.63;5034192;28;20433;-71
2023/01/23 02:26:41;;;;;;;16.10;10.57;;;;;;;5.00;59.73;98637.63;5031775;28;20469;-70
2023/01/23 02:29:06;;;;;;;15.70;10.90;;;;;;;4.98;59.53;98633.44;5034430;28;20465;-70
2023/01/23 02:31:32;;;;;;;14.40;10.53;;;;;;;5.00;59.67;98628.97;5033057;28;20426;-70
2023/01/23 02:33:58;;;;;;;16.60;11.23;;;;;;;4.96;59.54;98625.72;5036710;28;20183;-70
2023/01/23 02:36:30;;;;;;;15.37;11.47;;;;;;;4.94;60.12;98622.34;5032095;28;20223;-70
2023/01/23 02:39:17;;;;;;;17.00;11.17;;;;;;;4.95;59.54;98618.00;5032452;28;20458;-70
2023/01/23 02:41:45;;;;;;;16.37;11.87;;;;;;;4.89;59.31;98624.38;5040387;28;20427;-70
2023/01/23 02:44:16;;;;;;;18.40;12.37;;;;;;;4.94;59.92;98617.16;5035519;28;20436;-70
2023/01/23 02:46:41;;;;;;;16.50;12.07;;;;;;;4.93;59.63;98631.06;5031213;28;20462;-71
2023/01/23 02:49:07;;;;;;;17.87;11.50;;;;;;;4.91;60.12;98622.53;5036927;28;20489;-70
2023/01/23 02:51:32;;;;;;;17.67;11.30;;;;;;;4.95;60.38;98618.84;5039058;28;20218;-70
2023/01/23 02:53:58;;;;;;;15.10;11.33;;;;;;;5.00;59.97;98616.84;5035947;28;20184;-70
2023/01/23 02:56:23;;;;;;;13.73;10.57;;;;;;;4.99;60.14;98625.56;5032991;28;20298;-70
2023/01/23 03:01:34;;;;;;;16.10;11.07;;;;;;;5.01;59.85;98630.66;5037326;28;20184;-69
2023/01/23 03:04:05;;;;;;;15.50;11.70;;;;;;;5.01;59.47;98634.13;5033705;28;20506;-70
2023/01/23 03:06:35;;;;;;;16.87;11.43;;;;;;;4.99;59.49;98633.34;5032436;28;21056;-70
2023/01/23 03:09:09;;;;;;;15.60;12.10;;;;;;;4.94;60.26;98635.34;5034830;28;20454;-70
2023/01/23 03:11:36;;;;;;;18.83;12.37;;;;;;;4.94;59.62;98624.97;5045110;28;20429;-70
2023/01/23 03:14:03;;;;;;;17.27;12.20;;;;;;;4.94;59.86;98640.53;5040571;28;20525;-69
2023/01/23 03:16:28;;;;;;;18.10;12.57;;;;;;;4.96;60.10;98630.09;5058508;28;20440;-71
2023/01/23 03:18:56;;;;;;;14.43;11.30;;;;;;;4.92;60.08;98635.44;5040746;28;20537;-70
2023/01/23 03:21:22;;;;;;;17.00;11.97;;;;;;;4.95;59.58;98629.22;5041805;28;20551;-70
2023/01/23 03:23:47;;;;;;;17.70;11.70;;;;;;;4.93;60.00;98636.28;5042784;28;20418;-70
2023/01/23 03:26:13;;;;;;;16.73;11.63;;;;;;;4.93;60.11;98636.28;5045581;28;20290;-70
2023/01/23 03:31:22;;;;;;;17.37;12.30;;;;;;;4.94;60.28;98627.56;5039845;28;20210;-71
2023/01/23 03:33:47;;;;;;;18.53;12.97;;;;;;;4.97;60.52;98624.81;5056290;28;20797;-70
2023/01/23 03:36:13;;;;;;;17.00;12.47;;;;;;;4.96;60.24;98625.72;5038967;28;20210;-71
2023/01/23 03:41:23;;;;;;;17.60;12.17;;;;;;;4.95;60.60;98618.00;5063667;28;20175;-70
2023/01/23 03:41:25;;;;;;;19.80;12.67;;;;;;;4.89;60.67;98625.22;5045366;28;20197;-69
2023/01/23 03:43:50;;;;;;;18.07;12.90;;;;;;;4.97;60.18;98622.19;5052010;28;20438;-70
2023/01/23 03:46:15;;;;;;;16.50;12.03;;;;;;;4.94;60.25;98606.75;5044562;28;20556;-69
2023/01/23 03:48:41;;;;;;;18.13;12.90;;;;;;;4.91;59.97;98617.34;5040938;28;20263;-70
2023/01/23 03:51:06;;;;;;;18.30;12.20;;;;;;;4.92;60.29;98626.78;5050104;28;20183;-70
2023/01/23 03:53:32;;;;;;;17.00;12.90;;;;;;;4.92;60.13;98624.19;5044182;28;20591;-70
2023/01/23 03:55:57;;;;;;;18.23;12.80;;;;;;;4.88;60.07;98626.13;5055658;28;20204;-70
2023/01/23 03:58:23;;;;;;;18.37;13.03;;;;;;;4.93;60.33;98618.06;5043911;28;20241;-69
2023/01/23 04:00:48;;;;;;;17.83;12.77;;;;;;;4.96;60.49;98623.13;5065191;28;20186;-69
2023/01/23 04:03:14;;;;;;;14.47;11.33;;;;;;;5.00;60.48;98623.78;5063422;28;20219;-70
2023/01/23 04:05:39;;;;;;;19.70;12.40;;;;;;;5.02;59.72;98622.81;5063299;28;20270;-70
2023/01/23 04:08:05;;;;;;;20.43;13.80;;;;;;;5.02;59.48;98628.00;5057868;28;20218;-69
2023/01/23 04:10:31;;;;;;;17.93;12.73;;;;;;;5.00;59.78;98616.00;5067219;28;20605;-70
2023/01/23 04:12:56;;;;;;;19.10;12.20;;;;;;;5.04;59.71;98625.31;5060924;28;20178;-70
2023/01/23 04:15:22;;;;;;;17.23;12.57;;;;;;;5.02;60.15;98630.59;5059361;28;20187;-70
2023/01/23 04:17:47;;;;;;;17.43;12.80;;;;;;;5.03;60.33;98642.69;5065431;28;20214;-69
2023/01/23 04:20:13;;;;;;;21.10;13.63;;;;;;;4.96;60.49;98649.09;5062011;28;20217;-69
2023/01/23 04:22:38;;;;;;;18.53;12.40;;;;;;;4.87;59.86;98645.22;5066742;28;20182;-71
2023/01/23 04:25:04;;;;;;;19.10;12.67;;;;;;;4.90;60.21;98652.03;5051654;28;20240;-70
2023/01/23 04:27:31;;;;;;;19.37;13.20;;;;;;;4.89;60.53;98651.19;5063322;28;20195;-70
2023/01/23 04:29:57;;;;;;;19.20;14.23;;;;;;;4.96;60.15;98653.47;5060312;28;20448;-70
2023/01/23 04:32:23;;;;;;;18.30;12.97;;;;;;;4.97;60.52;98658.59;5060313;28;20536;-70
2023/01/23 04:34:48;;;;;;;24.10;14.77;;;;;;;4.97;60.18;98658.59;5065941;28;20484;-71
2023/01/23 04:37:14;;;;;;;21.67;14.53;;;;;;;4.94;59.93;98658.75;5061467;28;20627;-71
2023/01/23 04:39:40;;;;;;;17.00;12.67;;;;;;;4.89;60.34;98656.38;5066707;28;20182;-70
2023/01/23 04:42:05;;;;;;;18.70;13.40;;;;;;;4.93;60.18;98657.06;5062039;28;20265;-71
2023/01/23 04:44:30;;;;;;;20.57;13.57;;;;;;;4.94;60.27;98661.34;5057752;28;20185;-70
2023/01/23 04:46:56;;;;;;;21.47;13.93;;;;;;;4.93;59.81;98657.06;5057732;28;20713;-71
2023/01/23 04:49:22;;;;;;;18.17;12.80;;;;;;;4.92;60.44;98665.78;5057453;28;20356;-69
2023/01/23 04:51:48;;;;;;;19.63;13.17;;;;;;;4.89;59.67;98658.97;5048599;28;20187;-70
2023/01/23 04:54:15;;;;;;;18.60;13.90;;;;;;;4.83;60.35;98661.06;5049820;28;20429;-70
2023/01/23 04:56:41;;;;;;;17.33;12.53;;;;;;;4.81;59.88;98662.91;5033841;28;20461;-70
2023/01/23 04:59:06;;;;;;;19.83;14.10;;;;;;;4.85;60.19;98659.22;5034697;28;20985;-70
2023/01/23 05:01:32;;;;;;;22.07;14.70;;;;;;;4.84;60.78;98663.59;5048916;28;20662;-70
2023/01/23 05:03:58;;;;;;;19.20;13.70;;;;;;;4.88;60.85;98664.28;5065465;28;20174;-70
2023/01/23 05:06:23;;;;;;;19.60;13.20;;;;;;;4.90;60.23;98676.25;5064138;28;20677;-71
2023/01/23 05:08:48;;;;;;;22.37;13.00;;;;;;;4.90;59.84;98672.84;5056268;28;20301;-70
2023/01/23 05:11:14;;;;;;;21.20;13.27;;;;;;;4.88;60.53;98672.06;5064682;28;20187;-69
2023/01/23 05:13:40;;;;;;;20.20;13.27;;;;;;;4.89;60.09;98661.59;5047863;28;20187;-69
2023/01/23 05:16:08;;;;;;;20.03;14.00;;;;;;;4.89;60.50;98673.75;5056064;28;20461;-67
2023/01/23 05:18:34;;;;;;;18.53;13.30;;;;;;;4.96;60.72;98669.88;5046024;28;20591;-68
2023/01/23 05:20:59;;;;;;;18.90;13.53;;;;;;;4.96;60.27;98675.09;5055819;28;20436;-70
2023/01/23 05:23:24;;;;;;;17.97;12.93;;;;;;;5.00;60.09;98670.56;5060762;28;20187;-71
2023/01/23 05:25:50;;;;;;;21.67;13.40;;;;;;;4.99;60.43;98677.53;5067156;28;20261;-69
2023/01/23 05:28:15;;;;;;;18.50;13.60;;;;;;;4.99;60.30;98676.69;5051529;28;20199;-68
2023/01/23 05:30:41;;;;;;;19.80;13.87;;;;;;;5.01;60.58;98680.03;5056466;28;20537;-70
2023/01/23 05:33:07;;;;;;;20.80;13.97;;;;;;;4.99;60.04;98677.53;5069022;28;20642;-69
2023/01/23 05:35:32;;;;;;;19.67;13.73;;;;;;;4.95;60.21;98676.00;5050321;28;20235;-69
2023/01/23 05:37:57;;;;;;;17.17;12.53;;;;;;;4.91;59.79;98675.34;5035118;28;20769;-70
2023/01/23 05:40:23;;;;;;;22.73;14.87;;;;;;;4.90;60.41;98678.03;5067394;28;20205;-70
2023/01/23 05:42:49;;;;;;;20.63;14.60;;;;;;;4.91;60.60;98670.13;5067273;28;20602;-71
2023/01/23 05:45:15;;;;;;;20.27;13.50;;;;;;;4.95;60.09;98676.00;5064188;28;20266;-69
2023/01/23 05:47:41;;;;;;;18.77;13.17;;;;;;;4.96;59.82;98675.09;5060730;28;20206;-70
2023/01/23 05:50:08;;;;;;;19.10;13.00;;;;;;;4.91;60.07;98672.75;5067145;28;20432;-69
2023/01/23 05:52:34;;;;;;;18.93;13.10;;;;;;;4.96;60.53;98669.88;5063706;28;20182;-70
2023/01/23 05:55:00;;;;;;;18.60;13.07;;;;;;;4.98;60.30;98675.03;5061915;28;20432;-69
2023/01/23 05:57:25;;;;;;;19.90;13.63;;;;;;;5.01;60.53;98670.50;5063699;28;20441;-71
2023/01/23 05:59:51;;;;;;;18.07;12.97;;;;;;;5.01;59.77;98680.03;5045855;28;20673;-71
2023/01/23 06:02:16;;;;;;;20.93;13.27;;;;;;;4.99;60.20;98687.06;5059835;28;20341;-70
2023/01/23 06:04:42;;;;;;;17.60;11.73;;;;;;;4.92;59.51;98686.56;5059532;28;20179;-70
2023/01/23 06:07:14;;;;;;;20.77;13.40;;;;;;;4.93;60.50;98690.84;5064831;28;20653;-68
2023/01/23 06:09:40;;;;;;;19.67;13.43;;;;;;;4.97;60.24;98692.38;5062930;28;20265;-69
2023/01/23 06:12:05;;;;;;;18.13;13.43;;;;;;;4.98;60.56;98688.84;5054430;28;20429;-71
2023/01/23 06:14:31;;;;;;;18.20;12.83;;;;;;;4.97;59.81;98692.38;5064302;28;20182;-70
2023/01/23 06:16:56;;;;;;;18.17;12.53;;;;;;;4.91;60.14;98690.09;5064212;28;20290;-71
2023/01/23 06:19:22;;;;;;;22.40;14.00;;;;;;;4.89;60.24;98697.13;5062333;28;20565;-71
2023/01/23 06:21:47;;;;;;;18.50;12.70;;;;;;;4.84;60.29;98689.59;5061208;28;20208;-70
2023/01/23 06:24:12;;;;;;;20.50;13.83;;;;;;;4.82;59.98;98695.75;5060204;28;20206;-71
2023/01/23 06:26:38;;;;;;;20.80;13.70;;;;;;;4.72;60.31;98701.44;5062937;28;20202;-71
2023/01/23 06:29:04;;;;;;;23.43;15.43;;;;;;;4.71;60.27;98702.34;5058645;28;20245;-71
2023/01/23 06:31:31;;;;;;;18.70;13.67;;;;;;;4.66;60.29;98701.75;5059666;28;20248;-70
2023/01/23 06:33:57;;;;;;;21.17;13.80;;;;;;;4.65;60.36;98707.88;5062623;28;20262;-70
2023/01/23 06:36:23;;;;;;;20.93;14.07;;;;;;;4.60;60.63;98707.25;5062964;28;20815;-71
2023/01/23 06:38:48;;;;;;;22.30;14.10;;;;;;;4.55;60.51;98710.09;5058798;28;20422;-72
2023/01/23 06:41:14;;;;;;;22.70;14.00;;;;;;;4.62;60.43;98721.00;5053714;28;20190;-74
2023/01/23 06:43:39;;;;;;;19.87;13.63;;;;;;;4.61;60.68;98729.72;5071124;28;20186;-72
2023/01/23 06:46:08;;;;;;;20.50;13.60;;;;;;;4.60;60.83;98730.63;5063734;28;20182;-75
2023/01/23 06:48:34;;;;;;;22.80;12.50;;;;;;;4.61;60.62;98740.94;5024214;28;20210;-73
2023/01/23 06:50:59;;;;;;;18.80;12.77;;;;;;;4.52;60.98;98736.19;5063865;28;20417;-72
2023/01/23 06:53:26;;;;;;;18.83;13.03;;;;;;;4.50;61.21;98734.59;5059424;28;20431;-71
2023/01/23 06:55:51;;;;;;;19.50;13.57;;;;;;;4.49;61.09;98748.50;5064377;28;20179;-70
2023/01/23 06:58:17;;;;;;;20.17;13.67;;;;;;;4.51;61.07;98749.28;5043273;28;20541;-70
2023/01/23 07:00:43;;;;;;;20.90;14.10;;;;;;;4.54;60.88;98756.88;5065587;28;20185;-72
2023/01/23 07:03:11;;;;;;;24.03;14.03;;;;;;;4.54;60.79;98754.28;5063050;28;20308;-71
2023/01/23 07:05:38;;;;;;;22.17;14.10;;;;;;;4.54;60.87;98749.09;5060608;28;20975;-72
2023/01/23 07:08:04;;;;;;;20.57;13.10;;;;;;;4.58;60.41;98748.91;5044094;28;20535;-72
2023/01/23 07:10:31;;;;;;;21.90;13.23;;;;;;;4.56;60.90;98757.66;5063137;28;20421;-72
2023/01/23 07:12:56;;;;;;;23.03;14.10;;;;;;;4.59;61.09;98752.31;5040630;28;20505;-72
2023/01/23 07:15:22;;;;;;;21.10;14.03;;;;;;;4.56;60.67;98761.13;5037652;28;20516;-73
2023/01/23 07:17:47;;;;;;;21.27;13.53;;;;;;;4.59;60.73;98765.31;5046151;28;20198;-70
2023/01/23 07:20:14;;;;;;;21.63;13.37;;;;;;;4.55;61.02;98771.56;5038996;28;20196;-73
2023/01/23 07:22:39;;;;;;;19.67;12.60;;;;;;;4.57;61.20;98764.53;5039186;28;20232;-69
2023/01/23 07:25:05;;;;;;;21.60;13.87;;;;;;;4.48;61.36;98770.19;5046182;28;20430;-72
2023/01/23 07:27:32;;;;;;;24.23;14.10;;;;;;;4.55;61.70;98772.41;5045671;28;20202;-71
2023/01/23 07:29:57;;;;;;;23.03;14.60;;;;;;;4.57;60.98;98774.94;5041575;28;20513;-73
2023/01/23 07:32:22;;;;;;;24.37;14.00;;;;;;;4.58;60.89;98777.47;5049286;28;20459;-73
2023/01/23 07:34:48;;;;;;;29.30;14.73;;;;;;;4.64;61.13;98775.47;5039799;28;20183;-73
2023/01/23 07:37:13;;;;;;;24.03;14.83;;;;;;;4.64;61.17;98786.72;5041796;28;20204;-71
2023/01/23 07:39:39;;;;;;;21.00;12.90;;;;;;;4.64;60.92;98772.88;5043876;28;20725;-71
2023/01/23 07:42:04;;;;;;;23.70;14.03;;;;;;;4.65;60.87;98782.34;5052547;28;20180;-71
2023/01/23 07:44:30;;;;;;;24.90;14.47;;;;;;;4.61;60.62;98771.28;5055126;28;20270;-72
2023/01/23 07:46:55;;;;;;;25.30;15.03;;;;;;;4.64;60.92;98775.47;5049389;28;20206;-72
2023/01/23 07:49:21;;;;;;;21.80;14.20;;;;;;;4.63;60.71;98769.44;5039150;28;20211;-72
2023/01/23 07:51:46;;;;;;;25.67;14.70;;;;;;;4.62;60.82;98778.16;5053517;28;20214;-73
2023/01/23 07:54:12;;;;;;;26.97;15.40;;;;;;;4.68;61.28;98779.59;5039782;28;20218;-72
2023/01/23 07:56:37;;;;;;;24.57;15.23;;;;;;;4.74;61.23;98780.13;5058774;28;20707;-71
2023/01/23 07:59:03;;;;;;;24.03;14.40;;;;;;;4.76;60.91;98780.03;5057969;28;20183;-71
2023/01/23 08:01:28;;;;;;;29.07;16.90;;;;;;;4.80;61.55;98771.19;5062477;28;20235;-70
2023/01/23 08:03:54;;;;;;;24.97;14.37;;;;;;;4.86;60.63;98780.44;5059350;28;20186;-71
2023/01/23 08:06:19;;;;;;;26.17;15.50;;;;;;;4.80;60.81;98770.31;5066747;28;20229;-72
2023/01/23 08:08:48;;;;;;;26.80;15.60;;;;;;;4.87;61.00;98779.50;5053417;28;20562;-73
2023/01/23 08:11:13;;;;;;;23.03;14.63;;;;;;;4.90;60.62;98772.41;5067568;28;20293;-71
2023/01/23 08:13:39;;;;;;;24.60;14.03;;;;;;;4.95;60.87;98772.16;5052902;28;20532;-72
2023/01/23 08:16:05;;;;;;;20.50;13.63;;;;;;;4.93;60.00;98763.59;5060692;28;20190;-71
2023/01/23 08:18:32;;;;;;;21.50;14.17;;;;;;;4.91;60.06;98762.84;5054857;28;20171;-71
2023/01/23 08:21:00;;;;;;;24.50;14.67;;;;;;;4.93;60.46;98766.19;5064851;28;20428;-72
2023/01/23 08:23:26;;;;;;;20.53;14.47;;;;;;;5.01;60.41;98765.81;5053789;28;20429;-71
2023/01/23 08:25:57;;;;;;;23.77;14.53;;;;;;;5.01;60.40;98764.06;5064789;28;20446;-72
2023/01/23 08:28:23;;;;;;;23.33;14.70;;;;;;;5.04;60.26;98769.06;5066892;28;20460;-73
2023/01/23 08:30:49;;;;;;;28.07;15.57;;;;;;;5.03;59.83;98775.22;5059712;28;20425;-70
2023/01/23 08:33:15;;;;;;;25.47;15.43;;;;;;;5.02;60.25;98768.34;5059869;28;20436;-71
2023/01/23 08:35:51;;;;;;;25.23;15.10;;;;;;;5.04;59.53;98769.06;5060900;28;20185;-72
2023/01/23 08:38:20;;;;;;;23.60;16.73;;;;;;;4.99;60.43;98759.84;5059266;28;20420;-72
2023/01/23 08:40:46;;;;;;;27.03;17.33;;;;;;;5.05;60.23;98762.97;5062883;28;20424;-73
2023/01/23 08:43:15;;;;;;;25.67;16.83;;;;;;;5.10;60.07;98765.34;5064871;28;20508;-72
2023/01/23 08:45:41;;;;;;;26.60;15.70;;;;;;;5.09;59.63;98771.47;5065365;28;20456;-72
2023/01/23 08:48:07;;;;;;;24.10;15.23;;;;;;;5.10;59.97;98762.75;5063218;28;20483;-72
2023/01/23 08:50:33;;;;;;;24.50;15.60;;;;;;;5.08;59.47;98774.97;5061050;28;20420;-72
2023/01/23 08:52:59;;;;;;;25.93;14.97;;;;;;;5.10;59.82;98769.69;5058705;28;20428;-72
2023/01/23 08:55:25;;;;;;;23.03;14.30;;;;;;;5.16;59.07;98761.59;5071862;28;20507;-73
2023/01/23 08:57:50;;;;;;;23.90;14.90;;;;;;;5.18;59.22;98763.19;5064413;28;20677;-71
2023/01/23 09:00:16;;;;;;;21.57;13.70;;;;;;;5.15;59.08;98772.91;5049486;28;20458;-72
2023/01/23 09:02:42;;;;;;;22.07;14.73;;;;;;;5.19;59.15;98767.47;5047415;28;20187;-71
2023/01/23 09:05:08;;;;;;;25.53;14.33;;;;;;;5.24;58.78;98772.41;5040920;28;20267;-69
2023/01/23 09:07:35;;;;;;;22.70;14.13;;;;;;;5.27;58.48;98774.00;5045922;28;20202;-71
2023/01/23 09:10:01;;;;;;;24.60;15.20;;;;;;;5.25;58.69;98765.44;5043379;28;20926;-73
2023/01/23 09:12:27;;;;;;;22.27;13.23;;;;;;;5.23;57.78;98765.53;5047299;28;20523;-70
2023/01/23 09:14:53;;;;;;;23.87;15.13;;;;;;;5.29;58.63;98777.38;5039903;28;20959;-72
2023/01/23 09:17:19;;;;;;;23.70;14.33;;;;;;;5.42;58.09;98772.38;5048718;28;20222;-71
2023/01/23 09:19:44;;;;;;;20.67;13.53;;;;;;;5.55;58.22;98773.38;5046299;28;20422;-72
2023/01/23 09:22:09;;;;;;;21.60;13.33;;;;;;;5.69;56.99;98768.28;5052528;28;20273;-73
2023/01/23 09:24:35;;;;;;;24.23;15.57;;;;;;;5.69;56.54;98773.47;5047574;28;20524;-70
2023/01/23 09:27:00;;;;;;;22.40;15.27;;;;;;;5.76;56.40;98778.38;5048488;28;20211;-71
2023/01/23 09:29:26;;;;;;;20.13;13.10;;;;;;;5.79;56.23;98775.59;5060090;28;20301;-71
2023/01/23 09:31:51;;;;;;;22.73;14.03;;;;;;;5.78;55.45;98774.75;5063823;28;20218;-72
2023/01/23 09:34:17;;;;;;;20.43;13.27;;;;;;;5.78;55.38;98776.53;5054181;28;20214;-70
2023/01/23 09:36:42;;;;;;;20.87;12.73;;;;;;;5.74;55.20;98772.41;5058964;28;20233;-71
2023/01/23 09:39:08;;;;;;;19.47;12.87;;;;;;;5.66;54.87;98776.28;5048572;28;20179;-71
2023/01/23 09:41:33;;;;;;;24.97;12.07;;;;;;;5.61;55.09;98783.47;5057968;28;20183;-71
2023/01/23 09:44:04;;;;;;;19.40;13.10;;;;;;;5.56;55.24;98788.06;5057943;28;20535;-71
2023/01/23 09:46:44;;;;;;;17.20;11.67;;;;;;;5.56;55.45;98780.25;5060676;28;20199;-71
2023/01/23 09:49:18;;;;;;;20.27;12.93;;;;;;;5.61;55.66;98778.28;5051830;28;20460;-72
2023/01/23 09:51:58;;;;;;;21.10;13.67;;;;;;;5.52;54.95;98789.19;5063790;28;20839;-71
2023/01/23 09:54:32;;;;;;;24.83;14.33;;;;;;;5.51;55.30;98785.72;5050287;28;20427;-71
2023/01/23 09:57:00;;;;;;;20.43;12.20;;;;;;;5.42;55.00;98785.38;5056255;28;20993;-72
2023/01/23 09:59:36;;;;;;;18.50;11.80;;;;;;;5.32;54.77;98793.66;5052290;28;20480;-70
2023/01/23 10:02:10;;;;;;;18.60;12.00;;;;;;;5.33;55.12;98795.31;5063815;28;20546;-72
2023/01/23 10:04:36;;;;;;;18.17;11.73;;;;;;;5.24;54.95;98790.63;5065982;28;20444;-71
2023/01/23 10:07:13;;;;;;;16.60;10.73;;;;;;;5.24;54.96;98803.63;5061982;28;20533;-70
2023/01/23 10:10:09;;;;;;;16.43;10.93;;;;;;;5.18;54.79;98791.78;5059921;28;20305;-72
2023/01/23 10:13:14;;;;;;;17.00;10.90;;;;;;;5.11;54.20;98789.56;5050215;28;20421;-71
2023/01/23 10:16:00;;;;;;;15.87;10.03;;;;;;;5.08;53.99;98799.19;5050816;28;20413;-72
2023/01/23 10:18:40;;;;;;;17.30;10.90;;;;;;;4.87;53.76;98793.31;5066224;28;20475;-71
2023/01/23 10:21:14;;;;;;;15.40;10.30;;;;;;;5.08;54.38;98796.59;5067771;28;20787;-73
2023/01/23 10:24:00;;;;;;;14.70;10.23;;;;;;;5.19;54.40;98793.47;5060577;28;20946;-71
2023/01/23 10:26:30;;;;;;;16.30;10.50;;;;;;;5.29;53.94;98791.22;5049595;28;20831;-71
2023/01/23 10:29:02;;;;;;;15.13;10.30;;;;;;;5.23;53.92;98781.13;5033967;28;20195;-72
2023/01/23 10:31:43;;;;;;;15.73;10.00;;;;;;;5.27;53.58;98782.66;5037632;28;20445;-72
2023/01/23 10:34:08;;;;;;;17.77;11.37;;;;;;;5.21;54.03;98785.56;5039692;28;20454;-72
2023/01/23 10:36:36;;;;;;;14.90;10.33;;;;;;;5.30;53.75;98779.06;5039674;28;20535;-74
2023/01/23 10:39:14;;;;;;;16.27;10.00;;;;;;;5.27;53.29;98782.66;5034899;28;20218;-71
2023/01/23 10:41:39;;;;;;;19.33;10.70;;;;;;;5.21;53.69;98777.78;5038763;28;20418;-71
2023/01/23 10:44:13;;;;;;;18.43;11.27;;;;;;;5.25;53.74;98787.09;5050800;28;20510;-70
2023/01/23 10:46:51;;;;;;;20.23;11.10;;;;;;;5.19;53.75;98777.88;5038689;28;20199;-73
2023/01/23 10:49:38;;;;;;;17.90;11.60;;;;;;;5.22;54.19;98771.66;5037075;28;20553;-72
2023/01/23 10:52:04;;;;;;;19.00;11.13;;;;;;;5.16;54.50;98772.81;5038444;28;20824;-73
2023/01/23 10:54:44;;;;;;;18.13;11.20;;;;;;;5.03;54.41;98767.44;5043280;28;20519;-71
2023/01/23 10:57:12;;;;;;;17.70;11.77;;;;;;;5.02;54.88;98765.75;5038149;28;20469;-73
2023/01/23 10:59:40;;;;;;;20.03;11.67;;;;;;;5.05;54.56;98756.94;5039008;28;20430;-72
2023/01/23 11:02:11;;;;;;;25.70;12.13;;;;;;;5.03;55.06;98762.22;5034071;28;20459;-71
2023/01/23 11:04:37;;;;;;;18.07;12.30;;;;;;;5.08;55.30;98749.00;5037053;28;20931;-72
2023/01/23 11:07:03;;;;;;;17.27;11.37;;;;;;;5.06;54.87;98751.66;5034679;28;20620;-72
2023/01/23 11:09:29;;;;;;;20.17;12.77;;;;;;;5.06;54.96;98749.06;5037135;28;20457;-73
2023/01/23 11:12:15;;;;;;;19.60;12.50;;;;;;;4.99;54.93;98752.91;5040567;28;20183;-72
2023/01/23 11:14:40;;;;;;;19.03;11.90;;;;;;;4.94;55.38;98736.69;5036305;28;20410;-71
2023/01/23 11:17:32;;;;;;;17.17;10.80;;;;;;;4.93;55.55;98737.59;5041780;28;20963;-73
2023/01/23 11:19:58;;;;;;;19.70;11.33;;;;;;;4.73;55.37;98749.00;5039702;28;20219;-70
2023/01/23 11:22:30;;;;;;;19.23;11.93;;;;;;;4.69;55.54;98743.13;5048774;28;20504;-70
2023/01/23 11:24:56;;;;;;;18.90;11.50;;;;;;;4.89;56.02;98738.72;5044835;28;20415;-73
2023/01/23 11:27:26;;;;;;;19.10;12.53;;;;;;;4.79;56.18;98729.72;5051251;28;20452;-71
2023/01/23 11:30:02;;;;;;;21.53;12.03;;;;;;;4.69;56.03;98722.38;5053481;28;20456;-73
2023/01/23 11:32:30;;;;;;;17.63;11.97;;;;;;;4.78;56.54;98730.63;5036879;28;20429;-72